Time;durP1;ratioP1;P1;durP2;ratioP2;P2;SDS_P1;SDS_P2;PMS_P1;PMS_P2;Temp;Humidity;BMP_temperature;BMP_pressure;BME280_temperature;BME280_humidity;BME280_pressure;Samples;Min_cycle;Max_cycle;Signal;HPM_P1;HPM_P2
2023/11/02 00:01:13;;;;;;;6.67;1.40;;;21.80;52.70;;;;;;5046973;28;20559;-66
2023/11/02 00:03:42;;;;;;;7.83;1.77;;;21.50;52.40;;;;;;5050942;28;20226;-68
2023/11/02 00:06:20;;;;;;;8.30;2.23;;;21.60;53.00;;;;;;5048271;28;20176;-65
2023/11/02 00:09:18;;;;;;;7.90;2.10;;;21.60;52.70;;;;;;5053973;28;20203;-70
2023/11/02 00:12:02;;;;;;;8.57;1.83;;;22.20;52.50;;;;;;5052285;28;20192;-67
2023/11/02 00:14:44;;;;;;;9.30;1.97;;;22.70;51.10;;;;;;5049638;28;20655;-70
2023/11/02 00:17:48;;;;;;;9.43;2.23;;;22.50;50.90;;;;;;5050476;28;20205;-67
2023/11/02 00:20:32;;;;;;;6.00;2.00;;;22.40;51.70;;;;;;5049808;28;20192;-67
2023/11/02 00:23:00;;;;;;;7.27;2.03;;;22.80;49.20;;;;;;5044614;28;20250;-65
2023/11/02 00:25:51;;;;;;;9.07;1.40;;;22.80;46.70;;;;;;5052535;28;20374;-68
2023/11/02 00:28:20;;;;;;;9.07;2.03;;;23.20;46.30;;;;;;5049980;28;20262;-67
2023/11/02 00:30:50;;;;;;;4.97;1.67;;;22.90;47.40;;;;;;5049458;28;20261;-67
2023/11/02 00:33:18;;;;;;;4.20;1.67;;;22.50;48.10;;;;;;5055259;28;20668;-67
2023/11/02 00:35:50;;;;;;;7.37;2.00;;;22.80;47.60;;;;;;5052800;28;20188;-67
2023/11/02 00:38:19;;;;;;;5.20;1.77;;;23.20;45.20;;;;;;5050698;28;20216;-66
2023/11/02 00:40:47;;;;;;;4.87;1.87;;;23.80;44.30;;;;;;5048606;28;20176;-67
2023/11/02 00:43:16;;;;;;;6.13;1.57;;;23.60;44.80;;;;;;5052013;28;20188;-67
2023/11/02 00:45:43;;;;;;;6.87;1.90;;;23.80;45.00;;;;;;5049291;28;20207;-66
2023/11/02 00:48:34;;;;;;;10.00;1.90;;;23.60;45.60;;;;;;5052892;28;20208;-67
2023/11/02 00:51:26;;;;;;;8.47;2.13;;;23.50;45.30;;;;;;5051131;28;20202;-67
2023/11/02 00:53:56;;;;;;;8.17;2.17;;;23.50;44.90;;;;;;5052372;28;20211;-67
2023/11/02 00:56:27;;;;;;;3.13;1.20;;;23.50;45.90;;;;;;5052482;28;20176;-67
2023/11/02 00:58:56;;;;;;;6.20;1.47;;;23.70;44.00;;;;;;5053842;28;20172;-66
2023/11/02 01:01:26;;;;;;;4.07;1.63;;;23.80;44.20;;;;;;5053366;28;20266;-68
2023/11/02 01:03:56;;;;;;;5.77;1.37;;;24.00;45.00;;;;;;5053101;28;20289;-67
2023/11/02 01:06:34;;;;;;;6.53;1.90;;;24.30;43.80;;;;;;5052784;28;20279;-68
2023/11/02 01:09:29;;;;;;;5.93;1.40;;;23.90;45.40;;;;;;5052736;28;20224;-66
2023/11/02 01:11:57;;;;;;;9.53;2.00;;;23.20;48.20;;;;;;5053225;28;20567;-67
2023/11/02 01:14:24;;;;;;;7.97;2.40;;;23.40;48.80;;;;;;5051981;28;20184;-66
2023/11/02 01:16:52;;;;;;;9.33;2.27;;;23.70;48.30;;;;;;5051436;28;20300;-64
2023/11/02 01:19:53;;;;;;;7.77;2.00;;;23.80;47.80;;;;;;5053478;28;20207;-66
2023/11/02 01:23:02;;;;;;;6.87;1.67;;;24.20;47.40;;;;;;5049277;28;20183;-67
2023/11/02 01:25:30;;;;;;;6.43;1.90;;;24.50;46.30;;;;;;5053367;28;20176;-68
2023/11/02 01:28:06;;;;;;;5.10;1.40;;;25.00;43.00;;;;;;5053023;28;20270;-66
2023/11/02 01:30:39;;;;;;;9.20;2.03;;;25.10;42.20;;;;;;5053379;28;20202;-67
2023/11/02 01:33:37;;;;;;;5.67;1.90;;;24.20;44.40;;;;;;5053254;28;20180;-67
2023/11/02 01:36:06;;;;;;;9.03;1.87;;;24.00;45.00;;;;;;5053119;28;20614;-67
2023/11/02 01:38:35;;;;;;;4.50;1.90;;;24.30;46.20;;;;;;5052835;28;20720;-67
2023/11/02 01:41:17;;;;;;;10.70;2.13;;;24.30;46.00;;;;;;5053012;28;20541;-66
2023/11/02 01:44:03;;;;;;;5.77;1.90;;;24.40;46.30;;;;;;5052893;28;20241;-66
2023/11/02 01:46:43;;;;;;;12.17;2.70;;;24.40;45.80;;;;;;5052689;28;20199;-67
2023/11/02 01:49:27;;;;;;;10.67;2.20;;;24.30;47.10;;;;;;5051540;28;20202;-67
2023/11/02 01:52:21;;;;;;;7.23;2.00;;;25.10;46.20;;;;;;5037223;28;20176;-66
2023/11/02 01:55:15;;;;;;;8.03;1.97;;;25.30;44.60;;;;;;5042920;28;20651;-68
2023/11/02 01:58:08;;;;;;;10.33;2.00;;;24.80;45.30;;;;;;5052553;28;20191;-67
2023/11/02 02:00:54;;;;;;;10.03;1.87;;;25.30;44.30;;;;;;5052449;28;20188;-68
2023/11/02 02:03:44;;;;;;;6.97;2.40;;;25.50;44.10;;;;;;5052719;28;20215;-69
2023/11/02 02:06:23;;;;;;;9.43;2.50;;;25.30;44.30;;;;;;5052739;28;20650;-67
2023/11/02 02:09:10;;;;;;;5.93;1.80;;;24.90;45.10;;;;;;5052420;28;20731;-67
2023/11/02 02:11:59;;;;;;;4.70;1.80;;;24.70;46.30;;;;;;5052540;28;20263;-66
2023/11/02 02:14:54;;;;;;;9.23;2.07;;;24.10;47.40;;;;;;5052490;28;20185;-67
2023/11/02 02:17:48;;;;;;;7.33;1.63;;;24.50;47.10;;;;;;5052114;28;20180;-67
2023/11/02 02:20:26;;;;;;;9.40;2.13;;;24.50;46.50;;;;;;5054319;28;20211;-66
2023/11/02 02:23:12;;;;;;;5.00;1.60;;;24.60;46.60;;;;;;5055731;28;20182;-66
2023/11/02 02:26:14;;;;;;;6.70;2.10;;;24.50;47.20;;;;;;5056674;28;20539;-67
2023/11/02 02:28:57;;;;;;;11.37;1.90;;;24.60;47.60;;;;;;5052754;28;20318;-67
2023/11/02 02:31:42;;;;;;;7.87;2.00;;;24.80;46.60;;;;;;5056319;28;20168;-68
2023/11/02 02:34:22;;;;;;;12.63;2.33;;;25.30;46.10;;;;;;5056475;28;20203;-69
2023/11/02 02:37:17;;;;;;;10.23;2.00;;;25.90;44.80;;;;;;5056196;28;20208;-67
2023/11/02 02:39:49;;;;;;;7.50;2.03;;;25.80;44.30;;;;;;5038119;28;20639;-68
2023/11/02 02:42:20;;;;;;;8.70;2.00;;;25.90;44.40;;;;;;5056331;28;20571;-71
2023/11/02 02:44:51;;;;;;;7.27;1.67;;;25.70;44.70;;;;;;5056285;28;20184;-69
2023/11/02 02:47:22;;;;;;;6.03;1.93;;;25.30;45.20;;;;;;5052430;28;20171;-66
2023/11/02 02:49:51;;;;;;;7.93;1.90;;;24.80;45.50;;;;;;5054050;28;20881;-67
2023/11/02 02:52:24;;;;;;;9.00;2.00;;;24.30;46.30;;;;;;5054594;28;20183;-67
2023/11/02 02:54:56;;;;;;;8.50;1.70;;;24.80;45.60;;;;;;5055468;28;20191;-67
2023/11/02 02:57:28;;;;;;;8.47;1.77;;;25.20;44.10;;;;;;5054071;28;20191;-67
2023/11/02 02:59:59;;;;;;;4.83;1.80;;;25.50;44.30;;;;;;5055839;28;20638;-68
2023/11/02 03:02:31;;;;;;;9.73;2.10;;;25.50;44.70;;;;;;5054833;28;20206;-68
2023/11/02 03:04:59;;;;;;;5.07;1.93;;;26.10;43.00;;;;;;5060477;28;20270;-67
2023/11/02 03:07:30;;;;;;;8.57;2.00;;;26.20;42.50;;;;;;5069166;28;20168;-67
2023/11/02 03:10:02;;;;;;;4.63;1.63;;;26.40;42.70;;;;;;5055600;28;20241;-67
2023/11/02 03:12:35;;;;;;;9.77;2.10;;;27.30;40.20;;;;;;5055815;28;20188;-67
2023/11/02 03:15:07;;;;;;;7.30;2.10;;;27.70;39.20;;;;;;5056272;28;20176;-66
2023/11/02 03:17:55;;;;;;;8.27;2.03;;;27.00;40.10;;;;;;5055180;28;20237;-67
2023/11/02 03:20:23;;;;;;;6.27;2.07;;;27.00;40.50;;;;;;5051715;28;20264;-67
2023/11/02 03:22:50;;;;;;;5.87;1.80;;;26.70;41.20;;;;;;5050559;28;20634;-66
2023/11/02 03:25:28;;;;;;;6.37;1.90;;;26.60;41.50;;;;;;5051209;28;20673;-67
2023/11/02 03:28:11;;;;;;;7.03;2.10;;;25.80;43.00;;;;;;5052945;28;20238;-66
2023/11/02 03:31:15;;;;;;;5.77;1.90;;;25.40;43.60;;;;;;5054897;28;20194;-66
2023/11/02 03:33:45;;;;;;;6.37;1.50;;;24.90;45.00;;;;;;5050029;28;20187;-65
2023/11/02 03:36:19;;;;;;;5.77;1.70;;;24.20;46.20;;;;;;5051005;28;20251;-66
2023/11/02 03:39:22;;;;;;;6.10;1.80;;;24.30;46.00;;;;;;5051186;28;20581;-66
2023/11/02 03:42:34;;;;;;;6.83;1.50;;;25.20;44.00;;;;;;5046914;28;20666;-66
2023/11/02 03:45:20;;;;;;;9.53;2.00;;;24.80;44.30;;;;;;5047169;28;20215;-66
2023/11/02 03:48:24;;;;;;;5.10;1.80;;;25.00;45.00;;;;;;5051969;28;20717;-66
2023/11/02 03:51:04;;;;;;;5.20;1.50;;;25.70;43.40;;;;;;5053806;28;20184;-65
2023/11/02 03:53:56;;;;;;;5.07;1.77;;;25.30;43.70;;;;;;5052437;28;20211;-65
2023/11/02 03:56:45;;;;;;;5.70;1.53;;;25.30;43.50;;;;;;5048668;28;20176;-67
2023/11/02 04:00:05;;;;;;;5.50;1.70;;;25.80;42.90;;;;;;5054158;28;20575;-66
2023/11/02 04:02:36;;;;;;;7.07;1.80;;;25.00;44.50;;;;;;5047211;28;20203;-66
2023/11/02 04:05:06;;;;;;;7.73;1.77;;;25.60;44.10;;;;;;5050419;28;20188;-67
2023/11/02 04:07:47;;;;;;;7.67;1.60;;;26.10;41.60;;;;;;5049362;28;20180;-66
2023/11/02 04:10:15;;;;;;;7.77;1.70;;;26.10;42.20;;;;;;5049338;28;20195;-68
2023/11/02 04:12:55;;;;;;;5.10;1.57;;;26.30;41.40;;;;;;5051527;28;20188;-68
2023/11/02 04:15:22;;;;;;;4.73;1.63;;;27.10;40.30;;;;;;5049129;28;20314;-68
2023/11/02 04:17:51;;;;;;;8.43;1.47;;;26.70;40.60;;;;;;5052117;28;20192;-67
2023/11/02 04:20:19;;;;;;;4.27;1.40;;;27.10;40.30;;;;;;5052939;28;20545;-66
2023/11/02 04:22:47;;;;;;;10.37;1.70;;;27.20;39.60;;;;;;5050624;28;20233;-67
2023/11/02 04:25:16;;;;;;;4.97;1.60;;;26.20;41.40;;;;;;5052763;28;20195;-65
2023/11/02 04:27:44;;;;;;;6.03;1.93;;;25.80;42.40;;;;;;5052236;28;20210;-65
2023/11/02 04:30:12;;;;;;;6.90;1.73;;;25.80;41.90;;;;;;5051057;28;20184;-65
2023/11/02 04:32:39;;;;;;;6.50;1.60;;;25.70;42.40;;;;;;5051508;28;20184;-66
2023/11/02 04:35:07;;;;;;;5.90;2.00;;;26.00;42.40;;;;;;5054272;28;20526;-65
2023/11/02 04:37:35;;;;;;;8.43;1.57;;;26.70;40.70;;;;;;5054622;28;20230;-69
2023/11/02 04:40:03;;;;;;;4.37;1.37;;;26.80;39.80;;;;;;5057945;28;20202;-65
2023/11/02 04:42:30;;;;;;;8.90;1.73;;;26.50;40.60;;;;;;5058354;28;20188;-66
2023/11/02 04:44:58;;;;;;;4.73;1.60;;;26.70;40.50;;;;;;5052056;28;20179;-67
2023/11/02 04:47:25;;;;;;;6.10;1.40;;;26.90;39.90;;;;;;5050710;28;20542;-67
2023/11/02 04:49:53;;;;;;;4.47;1.20;;;27.80;39.00;;;;;;5055378;28;20206;-65
2023/11/02 04:52:20;;;;;;;7.33;1.50;;;28.30;36.80;;;;;;5048526;28;20187;-68
2023/11/02 04:54:48;;;;;;;4.73;1.50;;;28.40;36.40;;;;;;5052678;28;20574;-69
2023/11/02 04:57:15;;;;;;;9.90;2.00;;;27.60;38.40;;;;;;5052937;28;20836;-67
2023/11/02 04:59:43;;;;;;;8.37;1.93;;;27.80;38.70;;;;;;5056716;28;20267;-66
2023/11/02 05:02:10;;;;;;;5.00;1.43;;;28.50;37.20;;;;;;5061174;28;20176;-66
2023/11/02 05:04:38;;;;;;;8.17;2.20;;;28.00;37.90;;;;;;5055744;28;20187;-69
2023/11/02 05:07:06;;;;;;;4.93;1.40;;;27.40;39.80;;;;;;5063356;28;20207;-68
2023/11/02 05:09:35;;;;;;;7.68;1.77;;;27.60;39.20;;;;;;5056566;28;20230;-67
2023/11/02 05:12:03;;;;;;;5.30;1.65;;;27.80;39.70;;;;;;5061579;28;20187;-68
2023/11/02 05:14:30;;;;;;;5.47;1.67;;;28.80;37.40;;;;;;5054013;28;20191;-67
2023/11/02 05:16:58;;;;;;;5.30;1.77;;;28.60;37.60;;;;;;5055695;28;20184;-66
2023/11/02 05:19:25;;;;;;;6.55;1.55;;;28.50;37.00;;;;;;5058955;28;20183;-68
2023/11/02 05:21:53;;;;;;;5.33;1.50;;;28.00;38.50;;;;;;5055581;28;20187;-66
2023/11/02 05:24:21;;;;;;;6.10;1.70;;;28.40;38.20;;;;;;5052761;28;20233;-67
2023/11/02 05:26:49;;;;;;;7.20;1.23;;;28.30;37.70;;;;;;5052201;28;20267;-66
2023/11/02 05:29:16;;;;;;;6.35;1.50;;;28.90;36.20;;;;;;5049517;28;20243;-66
2023/11/02 05:31:44;;;;;;;3.13;1.10;;;29.30;35.40;;;;;;5050049;28;20188;-67
2023/11/02 05:34:12;;;;;;;7.47;1.48;;;29.10;36.50;;;;;;5049798;28;20191;-66
2023/11/02 05:36:39;;;;;;;6.17;1.77;;;28.80;36.40;;;;;;5053729;28;20274;-67
2023/11/02 05:39:06;;;;;;;5.43;1.90;;;27.10;39.40;;;;;;5053047;28;20198;-66
2023/11/02 05:41:34;;;;;;;7.33;1.70;;;26.70;41.10;;;;;;5055126;28;20180;-66
2023/11/02 05:44:02;;;;;;;6.33;1.67;;;27.70;39.30;;;;;;5054916;28;20670;-66
2023/11/02 05:46:30;;;;;;;5.93;1.60;;;28.70;37.50;;;;;;5056927;28;20190;-66
2023/11/02 05:48:57;;;;;;;3.73;1.53;;;28.90;36.20;;;;;;5056789;28;21149;-65
2023/11/02 05:51:25;;;;;;;4.45;1.50;;;28.20;37.90;;;;;;5058999;28;20184;-66
2023/11/02 05:53:52;;;;;;;4.17;1.43;;;28.90;37.30;;;;;;5060830;28;20187;-66
2023/11/02 05:56:20;;;;;;;4.45;1.48;;;29.40;36.00;;;;;;5050076;28;20210;-66
2023/11/02 05:58:52;;;;;;;5.05;1.52;;;29.90;35.50;;;;;;5049552;28;20270;-66
2023/11/02 06:01:20;;;;;;;6.65;1.40;;;29.30;36.20;;;;;;5063119;28;20176;-67
2023/11/02 06:03:48;;;;;;;8.83;2.00;;;28.80;37.10;;;;;;5055880;28;20217;-65
2023/11/02 06:06:15;;;;;;;3.57;1.00;;;28.00;38.70;;;;;;5048076;28;20681;-67
2023/11/02 06:08:43;;;;;;;6.13;1.60;;;28.40;38.00;;;;;;5046016;28;20226;-67
2023/11/02 06:11:11;;;;;;;4.77;1.70;;;28.70;37.30;;;;;;5063442;28;20211;-68
2023/11/02 06:13:38;;;;;;;6.17;1.90;;;28.70;36.90;;;;;;5047320;28;20819;-67
2023/11/02 06:16:15;;;;;;;6.68;1.80;;;27.80;38.10;;;;;;5047074;28;20241;-67
2023/11/02 06:18:45;;;;;;;6.00;1.50;;;27.30;39.70;;;;;;5044237;28;20533;-66
2023/11/02 06:21:21;;;;;;;8.27;1.70;;;28.10;38.60;;;;;;5047685;28;20184;-67
2023/11/02 06:23:49;;;;;;;4.63;1.80;;;28.80;37.00;;;;;;5046675;28;20612;-65
2023/11/02 06:26:18;;;;;;;4.40;1.20;;;28.30;37.80;;;;;;5050162;28;20198;-67
2023/11/02 06:29:01;;;;;;;5.87;1.47;;;27.60;38.80;;;;;;5050829;28;20337;-67
2023/11/02 06:31:31;;;;;;;7.60;1.80;;;27.50;38.90;;;;;;5045671;28;20192;-66
2023/11/02 06:33:58;;;;;;;3.10;1.30;;;27.30;39.50;;;;;;5032736;28;20652;-66
2023/11/02 06:36:45;;;;;;;7.10;1.57;;;27.70;39.30;;;;;;5044196;28;20221;-66
2023/11/02 06:39:23;;;;;;;4.37;1.37;;;26.70;40.90;;;;;;5045510;28;20594;-65
2023/11/02 06:41:51;;;;;;;5.33;1.40;;;27.30;39.70;;;;;;5046721;28;20191;-66
2023/11/02 06:44:20;;;;;;;3.50;1.60;;;27.50;39.60;;;;;;5048068;28;20192;-66
2023/11/02 06:46:48;;;;;;;4.43;1.53;;;27.20;39.40;;;;;;5048592;28;20271;-66
2023/11/02 06:49:19;;;;;;;4.93;1.43;;;27.50;39.70;;;;;;5042272;28;20220;-67
2023/11/02 06:51:48;;;;;;;4.43;1.40;;;27.20;40.00;;;;;;5042824;28;20279;-68
2023/11/02 06:54:16;;;;;;;5.83;1.50;;;27.30;40.00;;;;;;5046225;28;20240;-67
2023/11/02 06:56:46;;;;;;;5.60;1.83;;;26.60;40.50;;;;;;5051720;28;20221;-67
2023/11/02 06:59:20;;;;;;;3.87;1.43;;;26.20;41.90;;;;;;5048487;28;20227;-65
2023/11/02 07:01:50;;;;;;;4.20;1.17;;;25.50;43.00;;;;;;5047635;28;20188;-66
2023/11/02 07:04:20;;;;;;;6.10;2.10;;;26.40;41.40;;;;;;5049657;28;20603;-66
2023/11/02 07:06:50;;;;;;;9.23;1.97;;;26.40;42.30;;;;;;5054770;28;20248;-65
2023/11/02 07:09:18;;;;;;;5.33;1.77;;;26.70;40.90;;;;;;5058772;28;20234;-67
2023/11/02 07:11:49;;;;;;;7.07;1.40;;;26.40;41.20;;;;;;5051876;28;20548;-67
2023/11/02 07:14:17;;;;;;;4.63;1.70;;;26.40;41.70;;;;;;5057730;28;20361;-66
2023/11/02 07:16:45;;;;;;;4.90;1.40;;;26.10;41.60;;;;;;5064367;28;20184;-67
2023/11/02 07:19:13;;;;;;;7.90;1.70;;;25.30;43.40;;;;;;5062266;28;20195;-66
2023/11/02 07:21:41;;;;;;;3.57;1.27;;;25.40;43.70;;;;;;5053996;28;20195;-66
2023/11/02 07:24:09;;;;;;;5.70;1.50;;;24.80;45.60;;;;;;5053870;28;20194;-67
2023/11/02 07:26:41;;;;;;;4.90;1.27;;;24.40;46.20;;;;;;5055692;28;20342;-67
2023/11/02 07:29:09;;;;;;;6.80;1.53;;;23.20;48.60;;;;;;5050316;28;20211;-67
2023/11/02 07:31:40;;;;;;;2.97;1.20;;;22.80;50.20;;;;;;5051420;28;20477;-67
2023/11/02 07:34:08;;;;;;;3.93;1.53;;;22.30;50.60;;;;;;5057702;28;20206;-68
2023/11/02 07:36:43;;;;;;;4.87;1.40;;;21.90;51.30;;;;;;5053561;28;20642;-67
2023/11/02 07:39:12;;;;;;;6.40;1.53;;;21.70;52.50;;;;;;5048777;28;20266;-66
2023/11/02 07:41:41;;;;;;;6.40;1.60;;;21.50;53.40;;;;;;5050300;28;20212;-66
2023/11/02 07:44:10;;;;;;;8.13;2.43;;;21.40;53.80;;;;;;5053138;28;20199;-66
2023/11/02 07:46:38;;;;;;;5.93;2.10;;;21.50;54.10;;;;;;5050673;28;20211;-65
2023/11/02 07:49:13;;;;;;;5.07;1.93;;;21.30;54.90;;;;;;5051669;28;20215;-66
2023/11/02 07:51:41;;;;;;;5.33;1.83;;;21.20;55.10;;;;;;5053051;28;20237;-65
2023/11/02 07:54:09;;;;;;;7.00;1.60;;;20.90;56.90;;;;;;5052615;28;20176;-65
2023/11/02 07:56:37;;;;;;;8.00;1.47;;;20.80;57.10;;;;;;5051642;28;20187;-65
2023/11/02 07:59:09;;;;;;;5.23;1.90;;;20.80;57.40;;;;;;5047278;28;20649;-66
2023/11/02 08:01:36;;;;;;;7.00;2.10;;;20.80;57.50;;;;;;5050550;28;20200;-67
2023/11/02 08:04:06;;;;;;;9.03;1.47;;;20.60;58.20;;;;;;5056002;28;20211;-66
2023/11/02 08:06:35;;;;;;;6.80;1.77;;;20.60;57.80;;;;;;5067702;28;20171;-66
2023/11/02 08:09:03;;;;;;;7.70;1.57;;;20.60;57.50;;;;;;5052251;28;20219;-66
2023/11/02 08:11:40;;;;;;;9.00;1.93;;;20.40;58.30;;;;;;5056059;28;20214;-66
2023/11/02 08:14:08;;;;;;;6.57;1.50;;;20.40;59.00;;;;;;5054623;28;20191;-66
2023/11/02 08:16:36;;;;;;;5.33;1.63;;;20.30;59.30;;;;;;5059562;28;20569;-66
2023/11/02 08:19:05;;;;;;;6.97;1.80;;;20.30;59.70;;;;;;5054986;28;20198;-66
2023/11/02 08:21:32;;;;;;;5.83;1.83;;;20.10;60.50;;;;;;5054239;28;20176;-67
2023/11/02 08:24:00;;;;;;;4.60;1.70;;;20.20;60.50;;;;;;5051057;28;20191;-68
2023/11/02 08:26:28;;;;;;;4.87;1.73;;;20.20;60.50;;;;;;5053466;28;20199;-67
2023/11/02 08:28:56;;;;;;;3.93;1.77;;;20.20;60.40;;;;;;5052363;28;20207;-67
2023/11/02 08:31:31;;;;;;;5.70;1.67;;;20.10;59.90;;;;;;5053364;28;20518;-67
2023/11/02 08:34:05;;;;;;;5.63;2.10;;;20.10;60.20;;;;;;5054904;28;20175;-66
2023/11/02 08:36:34;;;;;;;5.10;1.80;;;20.00;60.80;;;;;;5051700;28;20191;-65
2023/11/02 08:39:02;;;;;;;5.57;1.97;;;19.90;61.10;;;;;;5048388;28;20191;-66
2023/11/02 08:41:31;;;;;;;6.03;1.87;;;19.90;61.20;;;;;;5050539;28;20187;-66
2023/11/02 08:43:59;;;;;;;7.50;2.27;;;20.00;60.80;;;;;;5047016;28;20192;-66
2023/11/02 08:46:26;;;;;;;6.53;1.73;;;19.80;61.50;;;;;;5051667;28;20180;-65
2023/11/02 08:48:54;;;;;;;6.63;2.05;;;19.80;61.30;;;;;;5048433;28;20464;-65
2023/11/02 08:51:23;;;;;;;5.13;2.17;;;19.80;61.30;;;;;;5054945;28;20164;-67
2023/11/02 08:53:51;;;;;;;7.30;1.70;;;19.70;61.10;;;;;;5061807;28;20188;-67
2023/11/02 08:56:19;;;;;;;5.50;1.87;;;19.70;61.10;;;;;;5051846;28;20171;-66
2023/11/02 08:58:49;;;;;;;6.20;2.30;;;19.60;61.00;;;;;;5052887;28;20673;-67
2023/11/02 09:01:22;;;;;;;5.03;1.50;;;19.60;61.30;;;;;;5046295;28;20180;-68
2023/11/02 09:03:51;;;;;;;8.17;2.10;;;19.60;61.90;;;;;;5048798;28;20184;-67
2023/11/02 09:06:20;;;;;;;4.50;1.93;;;19.60;61.80;;;;;;5046363;28;20182;-67
2023/11/02 09:08:51;;;;;;;9.33;2.20;;;19.60;62.00;;;;;;5039068;28;20690;-66
2023/11/02 09:11:19;;;;;;;7.50;2.10;;;19.70;61.60;;;;;;5049314;28;20180;-67
2023/11/02 09:13:47;;;;;;;4.77;2.00;;;19.70;61.70;;;;;;5052362;28;20175;-66
2023/11/02 09:16:14;;;;;;;5.13;1.63;;;19.70;62.20;;;;;;5052347;28;20266;-68
2023/11/02 09:18:42;;;;;;;8.70;2.13;;;19.80;61.80;;;;;;5050964;28;20184;-67
2023/11/02 09:21:10;;;;;;;7.43;1.70;;;19.70;62.00;;;;;;5052082;28;20279;-66
2023/11/02 09:23:37;;;;;;;8.90;1.93;;;19.70;62.30;;;;;;5048351;28;20195;-65
2023/11/02 09:26:05;;;;;;;7.80;2.37;;;19.70;62.30;;;;;;5051815;28;20187;-65
2023/11/02 09:28:36;;;;;;;5.80;2.10;;;19.70;62.40;;;;;;5050528;28;20208;-65
2023/11/02 09:31:04;;;;;;;8.53;2.10;;;19.70;62.00;;;;;;5054922;28;20187;-65
2023/11/02 09:33:31;;;;;;;10.13;1.93;;;19.70;62.10;;;;;;5050630;28;20605;-67
2023/11/02 09:36:00;;;;;;;8.57;1.90;;;19.70;61.90;;;;;;5053211;28;20336;-66
2023/11/02 09:38:27;;;;;;;5.80;1.80;;;19.70;62.10;;;;;;5071070;28;20292;-67
2023/11/02 09:40:55;;;;;;;6.03;1.90;;;19.70;61.80;;;;;;5059260;28;20179;-67
2023/11/02 09:43:22;;;;;;;4.37;1.80;;;19.70;62.00;;;;;;5057761;28;20207;-66
2023/11/02 09:45:50;;;;;;;6.10;2.07;;;19.70;62.30;;;;;;5055789;28;20190;-66
2023/11/02 09:48:18;;;;;;;6.17;2.27;;;19.70;62.00;;;;;;5060943;28;20287;-66
2023/11/02 09:50:45;;;;;;;9.17;2.20;;;19.70;62.30;;;;;;5062987;28;20294;-67
2023/11/02 09:53:13;;;;;;;7.13;2.37;;;19.60;62.30;;;;;;5059388;28;20712;-66
2023/11/02 09:55:42;;;;;;;10.17;2.20;;;19.70;62.60;;;;;;5055761;28;20192;-67
2023/11/02 09:58:10;;;;;;;4.87;1.90;;;19.70;62.40;;;;;;5051631;28;20646;-67
2023/11/02 10:00:41;;;;;;;8.50;1.77;;;19.80;62.00;;;;;;5064819;28;20214;-66
2023/11/02 10:03:09;;;;;;;5.53;1.80;;;19.80;61.80;;;;;;5053855;28;20728;-66
2023/11/02 10:05:36;;;;;;;6.67;1.83;;;19.80;62.10;;;;;;5049934;28;20262;-66
2023/11/02 10:08:03;;;;;;;6.50;1.60;;;19.80;61.80;;;;;;5051709;28;20705;-66
2023/11/02 10:10:34;;;;;;;4.87;1.70;;;19.90;62.00;;;;;;5058889;28;20539;-67
2023/11/02 10:13:03;;;;;;;6.47;1.80;;;20.00;61.60;;;;;;5051840;28;20199;-68
2023/11/02 10:15:31;;;;;;;5.00;1.87;;;20.00;61.50;;;;;;5051860;28;20200;-67
2023/11/02 10:17:59;;;;;;;6.53;1.70;;;20.00;61.30;;;;;;5051946;28;20238;-67
2023/11/02 10:20:27;;;;;;;8.83;2.17;;;20.20;61.10;;;;;;5053863;28;20272;-66
2023/11/02 10:23:03;;;;;;;6.50;1.40;;;20.10;60.90;;;;;;5061299;28;20179;-66
2023/11/02 10:25:31;;;;;;;6.90;1.90;;;20.00;61.60;;;;;;5060132;28;20171;-65
2023/11/02 10:28:00;;;;;;;4.57;1.87;;;20.20;61.00;;;;;;5059030;28;20203;-66
2023/11/02 10:30:28;;;;;;;4.73;1.63;;;20.20;61.50;;;;;;5071379;28;20195;-66
2023/11/02 10:33:04;;;;;;;5.20;1.80;;;20.30;61.00;;;;;;5053407;28;20207;-65
2023/11/02 10:35:32;;;;;;;6.33;1.80;;;20.30;61.00;;;;;;5049427;28;20191;-66
2023/11/02 10:37:59;;;;;;;7.63;2.43;;;20.30;61.00;;;;;;5048048;28;20235;-67
2023/11/02 10:40:50;;;;;;;9.00;2.20;;;20.30;61.10;;;;;;5048676;28;20199;-68
2023/11/02 10:43:21;;;;;;;5.33;1.83;;;20.30;61.20;;;;;;5051531;28;20176;-66
2023/11/02 10:45:52;;;;;;;7.13;1.53;;;20.30;61.30;;;;;;5083157;28;20321;-66
2023/11/02 10:48:20;;;;;;;6.43;1.90;;;20.30;61.40;;;;;;5050821;28;20210;-67
2023/11/02 10:50:50;;;;;;;9.20;1.80;;;20.30;61.90;;;;;;5047403;28;21940;-67
2023/11/02 10:53:26;;;;;;;5.90;1.67;;;20.20;61.90;;;;;;5051519;28;20183;-67
2023/11/02 10:56:04;;;;;;;4.27;1.50;;;20.30;62.20;;;;;;5051077;28;20240;-68
2023/11/02 10:58:32;;;;;;;5.00;1.87;;;20.20;62.00;;;;;;5051979;28;20662;-67
2023/11/02 11:01:02;;;;;;;7.47;1.60;;;20.20;62.20;;;;;;5049298;28;20191;-67
2023/11/02 11:03:30;;;;;;;7.90;2.13;;;20.30;62.30;;;;;;5050938;28;20188;-68
2023/11/02 11:05:58;;;;;;;7.13;1.43;;;20.20;62.40;;;;;;5051446;28;20184;-66
2023/11/02 11:08:30;;;;;;;9.43;1.63;;;20.10;62.70;;;;;;5050368;28;20223;-68
2023/11/02 11:10:59;;;;;;;5.23;1.40;;;20.20;62.50;;;;;;5067745;28;20183;-66
2023/11/02 11:13:28;;;;;;;8.70;1.30;;;20.20;62.60;;;;;;5050483;28;20183;-66
2023/11/02 11:15:57;;;;;;;8.33;1.63;;;20.20;62.90;;;;;;5050614;28;20188;-65
2023/11/02 11:18:25;;;;;;;5.90;1.40;;;20.20;62.90;;;;;;5080094;28;20180;-66
2023/11/02 11:20:53;;;;;;;7.13;1.60;;;20.20;62.60;;;;;;5052706;28;20649;-67
2023/11/02 11:23:21;;;;;;;7.00;1.60;;;20.20;62.60;;;;;;5052181;28;20183;-65
2023/11/02 11:26:04;;;;;;;4.33;1.23;;;20.20;62.60;;;;;;5054212;28;20176;-65
2023/11/02 11:28:38;;;;;;;7.53;1.40;;;20.30;62.20;;;;;;5050927;28;20281;-65
2023/11/02 11:31:09;;;;;;;4.50;1.50;;;20.20;62.10;;;;;;5055791;28;20377;-66
2023/11/02 11:33:47;;;;;;;7.97;1.73;;;20.20;62.40;;;;;;5058765;28;20179;-66
2023/11/02 11:36:25;;;;;;;7.50;1.40;;;20.10;62.60;;;;;;5055636;28;20187;-66
2023/11/02 11:38:53;;;;;;;8.60;1.60;;;20.10;62.70;;;;;;5065122;28;20669;-66
2023/11/02 11:41:43;;;;;;;5.47;1.37;;;20.10;62.40;;;;;;5058526;28;20180;-66
2023/11/02 11:44:22;;;;;;;6.23;1.77;;;20.10;62.40;;;;;;5050059;28;20184;-67
2023/11/02 11:46:53;;;;;;;6.67;1.40;;;20.00;62.80;;;;;;5062123;28;20261;-67
2023/11/02 11:49:43;;;;;;;4.67;1.10;;;20.00;62.60;;;;;;5064602;28;20216;-67
2023/11/02 11:52:23;;;;;;;6.60;1.37;;;20.10;62.90;;;;;;5057372;28;20179;-66
2023/11/02 11:54:51;;;;;;;7.10;1.60;;;20.10;62.90;;;;;;5049748;28;20187;-66
2023/11/02 11:57:57;;;;;;;5.17;1.20;;;20.00;63.10;;;;;;5056209;28;20180;-68
2023/11/02 12:00:27;;;;;;;4.53;1.40;;;20.10;63.40;;;;;;5048987;28;20183;-67
2023/11/02 12:02:56;;;;;;;5.50;1.67;;;20.00;63.70;;;;;;5046305;28;20183;-66
2023/11/02 12:05:45;;;;;;;5.57;1.20;;;20.00;64.20;;;;;;5065239;28;20184;-66
2023/11/02 12:08:13;;;;;;;4.90;1.33;;;20.00;64.40;;;;;;5052253;28;20223;-66
2023/11/02 12:11:01;;;;;;;4.47;1.13;;;20.00;64.50;;;;;;5058149;28;20669;-67
2023/11/02 12:13:29;;;;;;;4.60;1.20;;;20.00;64.30;;;;;;5054896;28;20261;-67
2023/11/02 12:15:59;;;;;;;5.73;1.47;;;20.00;64.60;;;;;;5053926;28;20547;-68
2023/11/02 12:18:28;;;;;;;4.60;1.20;;;19.90;64.90;;;;;;5055485;28;20209;-66
2023/11/02 12:21:04;;;;;;;5.70;2.30;;;19.90;65.20;;;;;;5056695;28;20310;-65
2023/11/02 12:23:39;;;;;;;4.37;1.70;;;19.90;65.30;;;;;;5055639;28;20642;-66
2023/11/02 12:26:08;;;;;;;5.93;1.37;;;19.90;65.40;;;;;;5057748;28;20543;-66
2023/11/02 12:28:47;;;;;;;6.70;1.53;;;20.00;65.30;;;;;;5059378;28;20243;-66
2023/11/02 12:31:35;;;;;;;12.93;2.20;;;20.10;64.80;;;;;;5058466;28;20195;-67
2023/11/02 12:34:18;;;;;;;5.07;1.27;;;20.00;64.90;;;;;;5060248;28;20188;-66
2023/11/02 12:36:46;;;;;;;3.50;1.00;;;19.90;65.30;;;;;;5052338;28;20198;-66
2023/11/02 12:39:15;;;;;;;4.20;1.40;;;19.90;66.30;;;;;;5064636;28;20203;-70
2023/11/02 12:41:45;;;;;;;8.10;1.77;;;19.80;67.10;;;;;;5067870;28;20180;-68
2023/11/02 12:44:15;;;;;;;4.03;1.20;;;19.90;68.00;;;;;;5066768;28;20213;-71
2023/11/02 12:46:46;;;;;;;7.90;1.57;;;19.90;68.60;;;;;;5066726;28;20229;-67
2023/11/02 12:49:18;;;;;;;5.33;1.23;;;19.90;68.40;;;;;;5063930;28;20342;-70
2023/11/02 12:52:06;;;;;;;3.70;1.50;;;20.00;69.10;;;;;;5064394;28;20180;-67
2023/11/02 12:54:36;;;;;;;5.57;1.70;;;20.00;70.10;;;;;;5066725;28;20176;-70
2023/11/02 12:57:08;;;;;;;4.53;1.33;;;19.80;70.80;;;;;;5066425;28;20211;-68
2023/11/02 12:59:42;;;;;;;6.30;1.57;;;19.60;71.60;;;;;;5064153;28;20246;-71
2023/11/02 13:02:14;;;;;;;4.10;1.27;;;19.60;72.20;;;;;;5050104;28;20208;-70
2023/11/02 13:04:51;;;;;;;9.30;1.80;;;19.50;73.40;;;;;;5064959;28;20183;-72
2023/11/02 13:07:32;;;;;;;6.97;1.50;;;19.30;75.20;;;;;;5063969;28;20291;-67
2023/11/02 13:10:06;;;;;;;8.20;1.83;;;19.20;76.10;;;;;;5060194;28;20223;-67
2023/11/02 13:12:39;;;;;;;6.30;1.50;;;19.00;77.50;;;;;;5059740;28;20183;-70
2023/11/02 13:15:11;;;;;;;10.23;1.93;;;18.90;80.00;;;;;;5060326;28;20317;-67
2023/11/02 13:17:44;;;;;;;6.23;1.43;;;19.00;80.90;;;;;;5056347;28;20191;-73